sensor_id;sensor_type;location;lat;lon;timestamp;temperature;humidity
67358;HTU21D;54240;51.096;5.878;2023-08-08T00:01:58;13.99;118.99
67358;HTU21D;54240;51.096;5.878;2023-08-08T00:04:24;13.95;118.99
67358;HTU21D;54240;51.096;5.878;2023-08-08T00:06:49;13.88;118.99
67358;HTU21D;54240;51.096;5.878;2023-08-08T00:09:16;13.77;118.99
67358;HTU21D;54240;51.096;5.878;2023-08-08T00:11:42;13.89;118.99
67358;HTU21D;54240;51.096;5.878;2023-08-08T00:14:08;13.81;118.99
67358;HTU21D;54240;51.096;5.878;2023-08-08T00:16:34;13.83;118.99
67358;HTU21D;54240;51.096;5.878;2023-08-08T00:19:00;13.81;118.99
67358;HTU21D;54240;51.096;5.878;2023-08-08T00:21:26;13.78;118.99
67358;HTU21D;54240;51.096;5.878;2023-08-08T00:23:52;13.76;118.99
67358;HTU21D;54240;51.096;5.878;2023-08-08T00:26:18;13.76;118.99
67358;HTU21D;54240;51.096;5.878;2023-08-08T00:28:43;13.71;118.99
67358;HTU21D;54240;51.096;5.878;2023-08-08T00:31:09;13.80;118.99
67358;HTU21D;54240;51.096;5.878;2023-08-08T00:33:37;13.82;118.99
67358;HTU21D;54240;51.096;5.878;2023-08-08T00:36:03;13.71;118.99
67358;HTU21D;54240;51.096;5.878;2023-08-08T00:38:29;13.75;118.99
67358;HTU21D;54240;51.096;5.878;2023-08-08T00:40:55;13.67;118.99
67358;HTU21D;54240;51.096;5.878;2023-08-08T00:43:21;13.67;118.99
67358;HTU21D;54240;51.096;5.878;2023-08-08T00:45:47;13.71;118.99
67358;HTU21D;54240;51.096;5.878;2023-08-08T00:48:13;13.70;118.99
67358;HTU21D;54240;51.096;5.878;2023-08-08T00:50:43;13.69;118.99
67358;HTU21D;54240;51.096;5.878;2023-08-08T00:53:11;13.68;118.99
67358;HTU21D;54240;51.096;5.878;2023-08-08T00:55:38;13.71;118.99
67358;HTU21D;54240;51.096;5.878;2023-08-08T00:58:04;13.67;118.99
67358;HTU21D;54240;51.096;5.878;2023-08-08T01:00:31;13.68;118.99
67358;HTU21D;54240;51.096;5.878;2023-08-08T01:02:57;13.60;118.99
67358;HTU21D;54240;51.096;5.878;2023-08-08T01:05:32;13.70;118.99
67358;HTU21D;54240;51.096;5.878;2023-08-08T01:08:06;13.67;118.99
67358;HTU21D;54240;51.096;5.878;2023-08-08T01:10:39;13.73;118.99
67358;HTU21D;54240;51.096;5.878;2023-08-08T01:13:15;13.60;118.99
67358;HTU21D;54240;51.096;5.878;2023-08-08T01:15:44;13.52;118.99
67358;HTU21D;54240;51.096;5.878;2023-08-08T01:18:12;13.59;118.99
67358;HTU21D;54240;51.096;5.878;2023-08-08T01:20:44;13.62;118.99
67358;HTU21D;54240;51.096;5.878;2023-08-08T01:23:26;13.61;118.99
67358;HTU21D;54240;51.096;5.878;2023-08-08T01:25:56;13.71;118.99
67358;HTU21D;54240;51.096;5.878;2023-08-08T01:28:25;13.62;118.99
67358;HTU21D;54240;51.096;5.878;2023-08-08T01:30:52;13.64;118.99
67358;HTU21D;54240;51.096;5.878;2023-08-08T01:33:19;13.73;118.99
67358;HTU21D;54240;51.096;5.878;2023-08-08T01:35:52;13.84;118.99
67358;HTU21D;54240;51.096;5.878;2023-08-08T01:38:30;13.79;118.99
67358;HTU21D;54240;51.096;5.878;2023-08-08T01:40:57;13.73;118.99
67358;HTU21D;54240;51.096;5.878;2023-08-08T01:43:26;13.85;118.99
67358;HTU21D;54240;51.096;5.878;2023-08-08T01:45:52;13.80;118.99
67358;HTU21D;54240;51.096;5.878;2023-08-08T01:48:20;13.82;118.99
67358;HTU21D;54240;51.096;5.878;2023-08-08T01:50:45;13.80;118.99
67358;HTU21D;54240;51.096;5.878;2023-08-08T01:53:11;13.76;118.99
67358;HTU21D;54240;51.096;5.878;2023-08-08T01:55:38;13.74;118.99
67358;HTU21D;54240;51.096;5.878;2023-08-08T01:58:04;13.63;118.99
67358;HTU21D;54240;51.096;5.878;2023-08-08T02:00:30;13.61;118.99
67358;HTU21D;54240;51.096;5.878;2023-08-08T02:02:56;13.54;118.99
67358;HTU21D;54240;51.096;5.878;2023-08-08T02:05:22;13.49;118.99
67358;HTU21D;54240;51.096;5.878;2023-08-08T02:07:48;13.54;118.99
67358;HTU21D;54240;51.096;5.878;2023-08-08T02:10:14;13.44;118.99
67358;HTU21D;54240;51.096;5.878;2023-08-08T02:12:40;13.46;118.99
67358;HTU21D;54240;51.096;5.878;2023-08-08T02:15:06;13.55;118.99
67358;HTU21D;54240;51.096;5.878;2023-08-08T02:17:32;13.47;118.99
67358;HTU21D;54240;51.096;5.878;2023-08-08T02:19:58;13.43;118.99
67358;HTU21D;54240;51.096;5.878;2023-08-08T02:22:25;13.44;118.99
67358;HTU21D;54240;51.096;5.878;2023-08-08T02:24:50;13.49;118.99
67358;HTU21D;54240;51.096;5.878;2023-08-08T02:27:17;13.35;118.99
67358;HTU21D;54240;51.096;5.878;2023-08-08T02:29:43;13.41;118.99
67358;HTU21D;54240;51.096;5.878;2023-08-08T02:32:09;13.35;118.99
67358;HTU21D;54240;51.096;5.878;2023-08-08T02:34:34;13.36;118.99
67358;HTU21D;54240;51.096;5.878;2023-08-08T02:37:00;13.36;118.99
67358;HTU21D;54240;51.096;5.878;2023-08-08T02:39:26;13.32;118.99
67358;HTU21D;54240;51.096;5.878;2023-08-08T02:41:52;13.33;118.99
67358;HTU21D;54240;51.096;5.878;2023-08-08T02:44:19;13.33;118.99
67358;HTU21D;54240;51.096;5.878;2023-08-08T02:46:45;13.23;118.99
67358;HTU21D;54240;51.096;5.878;2023-08-08T02:49:11;13.19;118.99
67358;HTU21D;54240;51.096;5.878;2023-08-08T02:51:37;13.15;118.99
67358;HTU21D;54240;51.096;5.878;2023-08-08T02:54:03;13.14;118.99
67358;HTU21D;54240;51.096;5.878;2023-08-08T02:56:32;13.06;118.99
67358;HTU21D;54240;51.096;5.878;2023-08-08T02:58:58;13.09;118.99
67358;HTU21D;54240;51.096;5.878;2023-08-08T03:01:24;13.09;118.99
67358;HTU21D;54240;51.096;5.878;2023-08-08T03:03:50;13.16;118.99
67358;HTU21D;54240;51.096;5.878;2023-08-08T03:06:18;13.10;118.99
67358;HTU21D;54240;51.096;5.878;2023-08-08T03:08:44;13.15;118.99
67358;HTU21D;54240;51.096;5.878;2023-08-08T03:11:10;13.08;118.99
67358;HTU21D;54240;51.096;5.878;2023-08-08T03:13:36;12.97;118.99
67358;HTU21D;54240;51.096;5.878;2023-08-08T03:16:03;12.89;118.99
67358;HTU21D;54240;51.096;5.878;2023-08-08T03:18:29;12.89;118.99
67358;HTU21D;54240;51.096;5.878;2023-08-08T03:20:56;12.89;118.99
67358;HTU21D;54240;51.096;5.878;2023-08-08T03:23:23;12.89;118.99
67358;HTU21D;54240;51.096;5.878;2023-08-08T03:25:50;13.06;118.99
67358;HTU21D;54240;51.096;5.878;2023-08-08T03:28:16;13.02;118.99
67358;HTU21D;54240;51.096;5.878;2023-08-08T03:30:42;12.90;118.99
67358;HTU21D;54240;51.096;5.878;2023-08-08T03:33:10;12.93;118.99
67358;HTU21D;54240;51.096;5.878;2023-08-08T03:35:36;12.97;118.99
67358;HTU21D;54240;51.096;5.878;2023-08-08T03:38:01;13.05;118.99
67358;HTU21D;54240;51.096;5.878;2023-08-08T03:40:28;12.88;118.99
67358;HTU21D;54240;51.096;5.878;2023-08-08T03:42:54;12.91;118.99
67358;HTU21D;54240;51.096;5.878;2023-08-08T03:45:20;13.05;118.99
67358;HTU21D;54240;51.096;5.878;2023-08-08T03:47:46;13.10;118.99
67358;HTU21D;54240;51.096;5.878;2023-08-08T03:50:13;13.11;118.99
67358;HTU21D;54240;51.096;5.878;2023-08-08T03:52:39;12.87;118.99
67358;HTU21D;54240;51.096;5.878;2023-08-08T03:55:09;13.00;118.99
67358;HTU21D;54240;51.096;5.878;2023-08-08T03:57:36;13.07;118.99
67358;HTU21D;54240;51.096;5.878;2023-08-08T04:00:03;12.96;118.99
67358;HTU21D;54240;51.096;5.878;2023-08-08T04:02:39;12.88;118.99
67358;HTU21D;54240;51.096;5.878;2023-08-08T04:05:05;12.97;118.99
67358;HTU21D;54240;51.096;5.878;2023-08-08T04:07:31;12.97;118.99
67358;HTU21D;54240;51.096;5.878;2023-08-08T04:09:58;12.92;118.99
67358;HTU21D;54240;51.096;5.878;2023-08-08T04:12:24;13.00;118.99
67358;HTU21D;54240;51.096;5.878;2023-08-08T04:14:50;13.02;118.99
67358;HTU21D;54240;51.096;5.878;2023-08-08T04:17:16;12.91;118.99
67358;HTU21D;54240;51.096;5.878;2023-08-08T04:19:41;12.99;118.99
67358;HTU21D;54240;51.096;5.878;2023-08-08T04:22:07;12.91;118.99
67358;HTU21D;54240;51.096;5.878;2023-08-08T04:24:33;12.90;118.99
67358;HTU21D;54240;51.096;5.878;2023-08-08T04:26:59;12.94;118.99
67358;HTU21D;54240;51.096;5.878;2023-08-08T04:29:25;12.93;118.99
67358;HTU21D;54240;51.096;5.878;2023-08-08T04:31:51;12.95;118.99
67358;HTU21D;54240;51.096;5.878;2023-08-08T04:34:17;13.00;118.99
67358;HTU21D;54240;51.096;5.878;2023-08-08T04:36:43;12.86;118.99
67358;HTU21D;54240;51.096;5.878;2023-08-08T04:39:09;12.94;118.99
67358;HTU21D;54240;51.096;5.878;2023-08-08T04:41:35;13.01;118.99
67358;HTU21D;54240;51.096;5.878;2023-08-08T04:44:01;12.96;118.99
67358;HTU21D;54240;51.096;5.878;2023-08-08T04:46:27;12.88;118.99
67358;HTU21D;54240;51.096;5.878;2023-08-08T04:48:52;12.86;118.99
67358;HTU21D;54240;51.096;5.878;2023-08-08T04:51:18;12.96;118.99
67358;HTU21D;54240;51.096;5.878;2023-08-08T04:53:44;13.02;118.99
67358;HTU21D;54240;51.096;5.878;2023-08-08T04:56:10;13.10;118.99
67358;HTU21D;54240;51.096;5.878;2023-08-08T04:58:36;13.15;118.99
67358;HTU21D;54240;51.096;5.878;2023-08-08T05:01:02;13.15;118.99
67358;HTU21D;54240;51.096;5.878;2023-08-08T05:03:28;13.32;118.99
67358;HTU21D;54240;51.096;5.878;2023-08-08T05:05:54;13.23;118.99
67358;HTU21D;54240;51.096;5.878;2023-08-08T05:08:20;13.18;118.99
67358;HTU21D;54240;51.096;5.878;2023-08-08T05:10:46;13.19;118.99
67358;HTU21D;54240;51.096;5.878;2023-08-08T05:13:12;13.21;118.99
67358;HTU21D;54240;51.096;5.878;2023-08-08T05:15:38;13.24;118.99
67358;HTU21D;54240;51.096;5.878;2023-08-08T05:18:04;13.31;118.99
67358;HTU21D;54240;51.096;5.878;2023-08-08T05:20:30;13.31;118.99
67358;HTU21D;54240;51.096;5.878;2023-08-08T05:22:56;13.23;118.99
67358;HTU21D;54240;51.096;5.878;2023-08-08T05:25:22;13.37;118.99
67358;HTU21D;54240;51.096;5.878;2023-08-08T05:27:48;13.47;118.99
67358;HTU21D;54240;51.096;5.878;2023-08-08T05:30:15;13.47;118.99
67358;HTU21D;54240;51.096;5.878;2023-08-08T05:32:41;13.52;118.99
67358;HTU21D;54240;51.096;5.878;2023-08-08T05:35:07;13.54;118.99
67358;HTU21D;54240;51.096;5.878;2023-08-08T05:37:33;13.49;118.99
67358;HTU21D;54240;51.096;5.878;2023-08-08T05:39:59;13.74;118.99
67358;HTU21D;54240;51.096;5.878;2023-08-08T05:42:25;13.82;118.99
67358;HTU21D;54240;51.096;5.878;2023-08-08T05:44:51;13.96;118.99
67358;HTU21D;54240;51.096;5.878;2023-08-08T05:47:17;14.00;118.99
67358;HTU21D;54240;51.096;5.878;2023-08-08T05:49:43;14.10;118.99
67358;HTU21D;54240;51.096;5.878;2023-08-08T05:52:09;14.06;118.99
67358;HTU21D;54240;51.096;5.878;2023-08-08T05:54:35;14.09;118.99
67358;HTU21D;54240;51.096;5.878;2023-08-08T05:57:03;14.05;118.99
67358;HTU21D;54240;51.096;5.878;2023-08-08T05:59:29;14.08;118.99
67358;HTU21D;54240;51.096;5.878;2023-08-08T06:01:54;14.26;118.99
67358;HTU21D;54240;51.096;5.878;2023-08-08T06:04:20;14.33;118.99
67358;HTU21D;54240;51.096;5.878;2023-08-08T06:06:46;14.42;118.99
67358;HTU21D;54240;51.096;5.878;2023-08-08T06:09:15;14.55;118.99
67358;HTU21D;54240;51.096;5.878;2023-08-08T06:11:41;14.51;118.99
67358;HTU21D;54240;51.096;5.878;2023-08-08T06:14:07;14.55;118.99
67358;HTU21D;54240;51.096;5.878;2023-08-08T06:16:33;14.79;118.99
67358;HTU21D;54240;51.096;5.878;2023-08-08T06:18:59;14.96;118.99
67358;HTU21D;54240;51.096;5.878;2023-08-08T06:21:25;15.15;118.99
67358;HTU21D;54240;51.096;5.878;2023-08-08T06:23:51;15.22;118.99
67358;HTU21D;54240;51.096;5.878;2023-08-08T06:26:21;15.19;118.99
67358;HTU21D;54240;51.096;5.878;2023-08-08T06:28:47;15.16;118.99
67358;HTU21D;54240;51.096;5.878;2023-08-08T06:31:14;15.32;118.99
67358;HTU21D;54240;51.096;5.878;2023-08-08T06:33:40;15.38;118.99
67358;HTU21D;54240;51.096;5.878;2023-08-08T06:36:06;15.31;118.99
67358;HTU21D;54240;51.096;5.878;2023-08-08T06:38:32;15.37;118.99
67358;HTU21D;54240;51.096;5.878;2023-08-08T06:41:00;15.57;118.99
67358;HTU21D;54240;51.096;5.878;2023-08-08T06:43:26;15.65;118.99
67358;HTU21D;54240;51.096;5.878;2023-08-08T06:45:52;15.75;118.99
67358;HTU21D;54240;51.096;5.878;2023-08-08T06:48:18;15.73;118.99
67358;HTU21D;54240;51.096;5.878;2023-08-08T06:50:44;15.97;118.99
67358;HTU21D;54240;51.096;5.878;2023-08-08T06:53:10;16.00;118.99
67358;HTU21D;54240;51.096;5.878;2023-08-08T06:55:36;16.30;118.99
67358;HTU21D;54240;51.096;5.878;2023-08-08T06:58:02;16.33;118.99
67358;HTU21D;54240;51.096;5.878;2023-08-08T07:00:29;16.21;118.99
67358;HTU21D;54240;51.096;5.878;2023-08-08T07:02:55;16.42;118.99
67358;HTU21D;54240;51.096;5.878;2023-08-08T07:05:21;16.50;118.99
67358;HTU21D;54240;51.096;5.878;2023-08-08T07:07:51;16.29;118.99
67358;HTU21D;54240;51.096;5.878;2023-08-08T07:10:18;16.18;118.99
67358;HTU21D;54240;51.096;5.878;2023-08-08T07:12:45;16.28;118.99
67358;HTU21D;54240;51.096;5.878;2023-08-08T07:15:11;16.27;118.99
67358;HTU21D;54240;51.096;5.878;2023-08-08T07:17:37;16.07;118.99
67358;HTU21D;54240;51.096;5.878;2023-08-08T07:20:04;16.16;118.99
67358;HTU21D;54240;51.096;5.878;2023-08-08T07:22:32;16.12;118.99
67358;HTU21D;54240;51.096;5.878;2023-08-08T07:24:59;15.83;118.99
67358;HTU21D;54240;51.096;5.878;2023-08-08T07:27:26;15.88;118.99
67358;HTU21D;54240;51.096;5.878;2023-08-08T07:29:52;15.87;118.99
67358;HTU21D;54240;51.096;5.878;2023-08-08T07:32:18;15.76;118.99
67358;HTU21D;54240;51.096;5.878;2023-08-08T07:34:44;16.03;118.99
67358;HTU21D;54240;51.096;5.878;2023-08-08T07:37:10;16.04;118.99
67358;HTU21D;54240;51.096;5.878;2023-08-08T07:39:36;16.06;118.99
67358;HTU21D;54240;51.096;5.878;2023-08-08T07:42:02;16.05;118.99
67358;HTU21D;54240;51.096;5.878;2023-08-08T07:44:28;16.29;118.99
67358;HTU21D;54240;51.096;5.878;2023-08-08T07:46:54;16.17;118.99
67358;HTU21D;54240;51.096;5.878;2023-08-08T07:49:20;16.08;118.99
67358;HTU21D;54240;51.096;5.878;2023-08-08T07:51:46;16.35;118.99
67358;HTU21D;54240;51.096;5.878;2023-08-08T07:54:12;16.13;118.99
67358;HTU21D;54240;51.096;5.878;2023-08-08T07:56:38;16.28;118.99
67358;HTU21D;54240;51.096;5.878;2023-08-08T07:59:04;16.44;118.99
67358;HTU21D;54240;51.096;5.878;2023-08-08T08:01:30;16.50;117.30
67358;HTU21D;54240;51.096;5.878;2023-08-08T08:03:56;16.66;88.10
67358;HTU21D;54240;51.096;5.878;2023-08-08T08:06:22;16.52;91.55
67358;HTU21D;54240;51.096;5.878;2023-08-08T08:08:48;16.67;47.29
67358;HTU21D;54240;51.096;5.878;2023-08-08T08:11:14;16.80;20.49
67358;HTU21D;54240;51.096;5.878;2023-08-08T08:13:41;16.76;-3.90
67358;HTU21D;54240;51.096;5.878;2023-08-08T08:16:07;16.76;-6.00
67358;HTU21D;54240;51.096;5.878;2023-08-08T08:18:33;17.01;-6.00
67358;HTU21D;54240;51.096;5.878;2023-08-08T08:21:00;17.34;-6.00
67358;HTU21D;54240;51.096;5.878;2023-08-08T08:23:26;17.32;-6.00
67358;HTU21D;54240;51.096;5.878;2023-08-08T08:25:53;17.43;-6.00
67358;HTU21D;54240;51.096;5.878;2023-08-08T08:28:19;17.48;-6.00
67358;HTU21D;54240;51.096;5.878;2023-08-08T08:30:44;17.56;-6.00
67358;HTU21D;54240;51.096;5.878;2023-08-08T08:33:10;18.00;-6.00
67358;HTU21D;54240;51.096;5.878;2023-08-08T08:35:36;18.58;-6.00
67358;HTU21D;54240;51.096;5.878;2023-08-08T08:38:03;18.79;-6.00
67358;HTU21D;54240;51.096;5.878;2023-08-08T08:40:35;18.58;-6.00
67358;HTU21D;54240;51.096;5.878;2023-08-08T08:43:02;18.56;-6.00
67358;HTU21D;54240;51.096;5.878;2023-08-08T08:45:29;18.57;-6.00
67358;HTU21D;54240;51.096;5.878;2023-08-08T08:47:56;18.78;-6.00
67358;HTU21D;54240;51.096;5.878;2023-08-08T08:50:27;18.82;-6.00
67358;HTU21D;54240;51.096;5.878;2023-08-08T08:52:55;18.91;-6.00
67358;HTU21D;54240;51.096;5.878;2023-08-08T08:55:22;19.02;-6.00
67358;HTU21D;54240;51.096;5.878;2023-08-08T08:57:50;19.05;-6.00
67358;HTU21D;54240;51.096;5.878;2023-08-08T09:00:16;18.93;-6.00
67358;HTU21D;54240;51.096;5.878;2023-08-08T09:02:42;0.00;0.00
67358;HTU21D;54240;51.096;5.878;2023-08-08T09:05:11;0.00;0.00
67358;HTU21D;54240;51.096;5.878;2023-08-08T09:07:37;0.00;0.00
67358;HTU21D;54240;51.096;5.878;2023-08-08T09:10:04;18.11;-6.00
67358;HTU21D;54240;51.096;5.878;2023-08-08T09:12:31;0.00;0.00
67358;HTU21D;54240;51.096;5.878;2023-08-08T09:15:01;0.00;0.00
67358;HTU21D;54240;51.096;5.878;2023-08-08T09:17:30;0.00;0.00
67358;HTU21D;54240;51.096;5.878;2023-08-08T09:19:56;0.00;0.00
67358;HTU21D;54240;51.096;5.878;2023-08-08T09:22:24;0.00;0.00
67358;HTU21D;54240;51.096;5.878;2023-08-08T09:24:50;0.00;0.00
67358;HTU21D;54240;51.096;5.878;2023-08-08T09:27:16;0.00;0.00
67358;HTU21D;54240;51.096;5.878;2023-08-08T09:29:42;0.00;0.00
67358;HTU21D;54240;51.096;5.878;2023-08-08T09:32:08;0.00;0.00
67358;HTU21D;54240;51.096;5.878;2023-08-08T09:34:35;0.00;0.00
67358;HTU21D;54240;51.096;5.878;2023-08-08T09:37:02;0.00;0.00
67358;HTU21D;54240;51.096;5.878;2023-08-08T09:39:29;0.00;0.00
67358;HTU21D;54240;51.096;5.878;2023-08-08T09:41:56;0.00;0.00
67358;HTU21D;54240;51.096;5.878;2023-08-08T09:44:29;18.44;-6.00
67358;HTU21D;54240;51.096;5.878;2023-08-08T09:46:56;18.67;-6.00
67358;HTU21D;54240;51.096;5.878;2023-08-08T09:49:23;18.82;-6.00
67358;HTU21D;54240;51.096;5.878;2023-08-08T09:51:50;18.72;-6.00
67358;HTU21D;54240;51.096;5.878;2023-08-08T09:54:16;18.73;-6.00
67358;HTU21D;54240;51.096;5.878;2023-08-08T09:56:43;18.56;-6.00
67358;HTU21D;54240;51.096;5.878;2023-08-08T09:59:09;18.47;-6.00
67358;HTU21D;54240;51.096;5.878;2023-08-08T10:01:37;18.35;-6.00
67358;HTU21D;54240;51.096;5.878;2023-08-08T10:04:06;18.21;-6.00
67358;HTU21D;54240;51.096;5.878;2023-08-08T10:06:32;18.37;-6.00
67358;HTU21D;54240;51.096;5.878;2023-08-08T10:08:59;18.48;-6.00
67358;HTU21D;54240;51.096;5.878;2023-08-08T10:11:27;18.25;-6.00
67358;HTU21D;54240;51.096;5.878;2023-08-08T10:13:54;18.14;-6.00
67358;HTU21D;54240;51.096;5.878;2023-08-08T10:16:22;18.17;-6.00
67358;HTU21D;54240;51.096;5.878;2023-08-08T10:18:58;18.09;-6.00
67358;HTU21D;54240;51.096;5.878;2023-08-08T10:21:25;17.73;-6.00
67358;HTU21D;54240;51.096;5.878;2023-08-08T10:24:02;17.79;-6.00
67358;HTU21D;54240;51.096;5.878;2023-08-08T10:26:30;17.70;-6.00
67358;HTU21D;54240;51.096;5.878;2023-08-08T10:28:59;17.46;-6.00
67358;HTU21D;54240;51.096;5.878;2023-08-08T10:31:25;17.52;-6.00
67358;HTU21D;54240;51.096;5.878;2023-08-08T10:34:04;17.52;-6.00
67358;HTU21D;54240;51.096;5.878;2023-08-08T10:36:50;17.49;-6.00
67358;HTU21D;54240;51.096;5.878;2023-08-08T10:39:18;17.51;-6.00
67358;HTU21D;54240;51.096;5.878;2023-08-08T10:41:49;17.29;-6.00
67358;HTU21D;54240;51.096;5.878;2023-08-08T10:44:25;17.45;-6.00
67358;HTU21D;54240;51.096;5.878;2023-08-08T10:46:52;17.64;-6.00
67358;HTU21D;54240;51.096;5.878;2023-08-08T10:49:19;17.60;-6.00
67358;HTU21D;54240;51.096;5.878;2023-08-08T10:51:48;17.76;-6.00
67358;HTU21D;54240;51.096;5.878;2023-08-08T10:56:51;17.82;-6.00
67358;HTU21D;54240;51.096;5.878;2023-08-08T10:59:36;17.69;-6.00
67358;HTU21D;54240;51.096;5.878;2023-08-08T11:02:02;17.83;-6.00
67358;HTU21D;54240;51.096;5.878;2023-08-08T11:04:29;17.77;-6.00
67358;HTU21D;54240;51.096;5.878;2023-08-08T11:06:58;17.28;-6.00
67358;HTU21D;54240;51.096;5.878;2023-08-08T11:09:25;16.72;29.84
67358;HTU21D;54240;51.096;5.878;2023-08-08T11:11:52;16.16;118.99
67358;HTU21D;54240;51.096;5.878;2023-08-08T11:14:21;15.58;118.99
67358;HTU21D;54240;51.096;5.878;2023-08-08T11:16:50;15.29;118.99
67358;HTU21D;54240;51.096;5.878;2023-08-08T11:19:16;15.31;118.99
67358;HTU21D;54240;51.096;5.878;2023-08-08T11:21:46;15.36;118.99
67358;HTU21D;54240;51.096;5.878;2023-08-08T11:24:12;15.52;118.99
67358;HTU21D;54240;51.096;5.878;2023-08-08T11:26:41;15.83;118.99
67358;HTU21D;54240;51.096;5.878;2023-08-08T11:29:07;16.01;118.99
67358;HTU21D;54240;51.096;5.878;2023-08-08T11:31:34;16.07;118.99
67358;HTU21D;54240;51.096;5.878;2023-08-08T11:34:01;16.07;118.99
67358;HTU21D;54240;51.096;5.878;2023-08-08T11:36:34;16.00;118.99
67358;HTU21D;54240;51.096;5.878;2023-08-08T11:39:05;16.32;118.99
67358;HTU21D;54240;51.096;5.878;2023-08-08T11:41:34;17.08;118.99
67358;HTU21D;54240;51.096;5.878;2023-08-08T11:44:03;17.13;118.99
67358;HTU21D;54240;51.096;5.878;2023-08-08T11:46:30;17.13;118.99
67358;HTU21D;54240;51.096;5.878;2023-08-08T11:49:05;17.09;118.99
67358;HTU21D;54240;51.096;5.878;2023-08-08T11:51:34;17.25;118.99
67358;HTU21D;54240;51.096;5.878;2023-08-08T11:54:02;17.37;115.74
67358;HTU21D;54240;51.096;5.878;2023-08-08T11:56:33;17.87;113.04
67358;HTU21D;54240;51.096;5.878;2023-08-08T11:58:59;18.03;-6.00
67358;HTU21D;54240;51.096;5.878;2023-08-08T12:01:27;18.27;-6.00
67358;HTU21D;54240;51.096;5.878;2023-08-08T12:03:54;18.48;-6.00
67358;HTU21D;54240;51.096;5.878;2023-08-08T12:06:21;18.67;-6.00
67358;HTU21D;54240;51.096;5.878;2023-08-08T12:08:48;18.80;-6.00
67358;HTU21D;54240;51.096;5.878;2023-08-08T12:11:15;18.95;-6.00
67358;HTU21D;54240;51.096;5.878;2023-08-08T12:13:43;19.18;-6.00
67358;HTU21D;54240;51.096;5.878;2023-08-08T12:16:11;19.13;-6.00
67358;HTU21D;54240;51.096;5.878;2023-08-08T12:18:38;19.21;-6.00
67358;HTU21D;54240;51.096;5.878;2023-08-08T12:21:05;19.06;-6.00
67358;HTU21D;54240;51.096;5.878;2023-08-08T12:23:32;19.10;-6.00
67358;HTU21D;54240;51.096;5.878;2023-08-08T12:25:59;19.27;-6.00
67358;HTU21D;54240;51.096;5.878;2023-08-08T12:28:26;19.73;-6.00
67358;HTU21D;54240;51.096;5.878;2023-08-08T12:30:52;20.13;-6.00
67358;HTU21D;54240;51.096;5.878;2023-08-08T12:33:18;20.35;-6.00
67358;HTU21D;54240;51.096;5.878;2023-08-08T12:35:43;20.44;-6.00
67358;HTU21D;54240;51.096;5.878;2023-08-08T12:38:09;20.57;-6.00
67358;HTU21D;54240;51.096;5.878;2023-08-08T12:40:36;20.69;-6.00
67358;HTU21D;54240;51.096;5.878;2023-08-08T12:43:02;20.51;-6.00
67358;HTU21D;54240;51.096;5.878;2023-08-08T12:45:28;20.05;-6.00
67358;HTU21D;54240;51.096;5.878;2023-08-08T12:47:54;19.41;-6.00
67358;HTU21D;54240;51.096;5.878;2023-08-08T12:50:20;19.03;-6.00
67358;HTU21D;54240;51.096;5.878;2023-08-08T12:52:45;19.01;-6.00
67358;HTU21D;54240;51.096;5.878;2023-08-08T12:55:11;19.17;-6.00
67358;HTU21D;54240;51.096;5.878;2023-08-08T12:57:37;19.53;-6.00
67358;HTU21D;54240;51.096;5.878;2023-08-08T13:00:04;19.80;-6.00
67358;HTU21D;54240;51.096;5.878;2023-08-08T13:02:33;19.66;-6.00
67358;HTU21D;54240;51.096;5.878;2023-08-08T13:04:59;19.52;-6.00
67358;HTU21D;54240;51.096;5.878;2023-08-08T13:07:25;19.42;-6.00
67358;HTU21D;54240;51.096;5.878;2023-08-08T13:09:51;19.32;-6.00
67358;HTU21D;54240;51.096;5.878;2023-08-08T13:12:17;19.20;-6.00
67358;HTU21D;54240;51.096;5.878;2023-08-08T13:14:43;19.30;-6.00
67358;HTU21D;54240;51.096;5.878;2023-08-08T13:17:09;19.30;-6.00
67358;HTU21D;54240;51.096;5.878;2023-08-08T13:19:36;19.60;-6.00
67358;HTU21D;54240;51.096;5.878;2023-08-08T13:22:02;19.90;-6.00
67358;HTU21D;54240;51.096;5.878;2023-08-08T13:24:28;20.11;-6.00
67358;HTU21D;54240;51.096;5.878;2023-08-08T13:26:54;20.47;-6.00
67358;HTU21D;54240;51.096;5.878;2023-08-08T13:29:20;21.05;-6.00
67358;HTU21D;54240;51.096;5.878;2023-08-08T13:31:46;20.89;-6.00
67358;HTU21D;54240;51.096;5.878;2023-08-08T13:34:12;21.16;-6.00
67358;HTU21D;54240;51.096;5.878;2023-08-08T13:36:37;21.37;-6.00
67358;HTU21D;54240;51.096;5.878;2023-08-08T13:39:03;21.49;-6.00
67358;HTU21D;54240;51.096;5.878;2023-08-08T13:41:30;21.55;-6.00
67358;HTU21D;54240;51.096;5.878;2023-08-08T13:43:56;21.77;-6.00
67358;HTU21D;54240;51.096;5.878;2023-08-08T13:46:22;21.81;-6.00
67358;HTU21D;54240;51.096;5.878;2023-08-08T13:48:48;21.87;-6.00
67358;HTU21D;54240;51.096;5.878;2023-08-08T13:51:14;22.13;-6.00
67358;HTU21D;54240;51.096;5.878;2023-08-08T13:53:39;22.35;-6.00
67358;HTU21D;54240;51.096;5.878;2023-08-08T13:56:05;22.39;-6.00
67358;HTU21D;54240;51.096;5.878;2023-08-08T13:58:31;21.99;-6.00
67358;HTU21D;54240;51.096;5.878;2023-08-08T14:00:57;22.04;-6.00
67358;HTU21D;54240;51.096;5.878;2023-08-08T14:03:24;22.11;-6.00
67358;HTU21D;54240;51.096;5.878;2023-08-08T14:05:51;21.84;-6.00
67358;HTU21D;54240;51.096;5.878;2023-08-08T14:08:19;21.97;-6.00
67358;HTU21D;54240;51.096;5.878;2023-08-08T14:10:46;21.91;-6.00
67358;HTU21D;54240;51.096;5.878;2023-08-08T14:13:12;22.21;-6.00
67358;HTU21D;54240;51.096;5.878;2023-08-08T14:15:39;22.04;-6.00
67358;HTU21D;54240;51.096;5.878;2023-08-08T14:18:08;22.21;-6.00
67358;HTU21D;54240;51.096;5.878;2023-08-08T14:20:33;22.50;-6.00
67358;HTU21D;54240;51.096;5.878;2023-08-08T14:23:00;22.66;-6.00
67358;HTU21D;54240;51.096;5.878;2023-08-08T14:25:25;22.58;-6.00
67358;HTU21D;54240;51.096;5.878;2023-08-08T14:27:51;22.40;-6.00
67358;HTU21D;54240;51.096;5.878;2023-08-08T14:30:17;22.50;-6.00
67358;HTU21D;54240;51.096;5.878;2023-08-08T14:32:43;22.58;-6.00
67358;HTU21D;54240;51.096;5.878;2023-08-08T14:35:09;22.20;-6.00
67358;HTU21D;54240;51.096;5.878;2023-08-08T14:37:36;22.52;-6.00
67358;HTU21D;54240;51.096;5.878;2023-08-08T14:40:02;22.28;-6.00
67358;HTU21D;54240;51.096;5.878;2023-08-08T14:42:28;22.31;-6.00
67358;HTU21D;54240;51.096;5.878;2023-08-08T14:44:54;22.60;-6.00
67358;HTU21D;54240;51.096;5.878;2023-08-08T14:47:20;22.63;-6.00
67358;HTU21D;54240;51.096;5.878;2023-08-08T14:49:47;22.77;-6.00
67358;HTU21D;54240;51.096;5.878;2023-08-08T14:52:13;23.07;-6.00
67358;HTU21D;54240;51.096;5.878;2023-08-08T14:54:39;23.12;-6.00
67358;HTU21D;54240;51.096;5.878;2023-08-08T14:57:05;23.47;-6.00
67358;HTU21D;54240;51.096;5.878;2023-08-08T14:59:31;23.53;-6.00
67358;HTU21D;54240;51.096;5.878;2023-08-08T15:01:57;23.40;-6.00
67358;HTU21D;54240;51.096;5.878;2023-08-08T15:04:23;22.61;-6.00
67358;HTU21D;54240;51.096;5.878;2023-08-08T15:06:49;22.70;-6.00
67358;HTU21D;54240;51.096;5.878;2023-08-08T15:09:15;22.73;-6.00
67358;HTU21D;54240;51.096;5.878;2023-08-08T15:11:41;22.65;-6.00